[HD] Tag der Bundeswehr 2018 , Holzdorf , Sikorsky Ch 53 Solo Display

Date : 09.06.2018 Sikorsky Ch 53 Registration : 84+39 Location : Holzdorf Military Unit : Hubschraubergeschwader 64 Holzdorf Tag der Bundeswehr 2018 , Holzdorf PA-200 Tornado Display https://youtu.be/s8H8kiGrYgU Rettungsvorführung https://youtu.be/3SqVpy0oqXg Tag der Bundeswehr 2018 , Holzdorf , Eurofighter 2000 ,, Ghost Tiger,, flying display https://youtu.be/C-okBTH1vyA Metar ETSH 091520Z 04007KT 9999 FEW070 31/12 Q1010 BLU+BLU+ __ Kamera : Panasonic HC-V777 www.christoph-47.de.tl http://helispotter-team-nord.jimdo.de/ (c) Rueganer91
  • 0 Hits